TimeMDT,TemperatureF,Dew PointF,Humidity,Sea Level PressureIn,VisibilityMPH,Wind Direction,Wind SpeedMPH,Gust SpeedMPH,PrecipitationIn,Events,Conditions,WindDirDegrees,DateUTC
12:53 AM,69.1,59.0,70,30.06,10.0,South,13.8,-,N/A,,Clear,180,2013-07-18 06:53:00
1:53 AM,68.0,60.1,76,30.05,10.0,South,11.5,-,N/A,,Clear,180,2013-07-18 07:53:00
2:53 AM,66.0,60.1,81,30.03,10.0,South,8.1,-,N/A,,Clear,170,2013-07-18 08:53:00
3:53 AM,66.9,60.1,79,30.01,10.0,SSE,16.1,-,N/A,,Clear,160,2013-07-18 09:53:00
4:53 AM,66.0,60.1,81,29.99,10.0,SSE,19.6,-,N/A,,Clear,150,2013-07-18 10:53:00
5:53 AM,66.0,60.1,81,29.99,10.0,SSE,20.7,27.6,N/A,,Clear,160,2013-07-18 11:53:00
6:53 AM,68.0,60.1,76,29.99,10.0,South,20.7,26.5,N/A,,Clear,170,2013-07-18 12:53:00
7:53 AM,72.0,60.1,66,29.98,10.0,South,27.6,33.4,N/A,,Clear,190,2013-07-18 13:53:00
8:53 AM,75.9,59.0,56,29.97,10.0,South,28.8,34.5,N/A,,Clear,190,2013-07-18 14:53:00
9:53 AM,81.0,57.9,45,29.96,10.0,SSW,25.3,31.1,N/A,,Clear,200,2013-07-18 15:53:00
10:53 AM,86.0,57.0,37,29.94,10.0,South,21.9,31.1,N/A,,Clear,190,2013-07-18 16:53:00
11:53 AM,88.0,54.0,31,29.91,10.0,South,18.4,27.6,N/A,,Clear,190,2013-07-18 17:53:00
12:53 PM,91.0,54.0,28,29.88,10.0,South,19.6,29.9,N/A,,Clear,170,2013-07-18 18:53:00
1:53 PM,93.0,54.0,27,29.86,10.0,SSE,20.7,27.6,N/A,,Clear,160,2013-07-18 19:53:00
2:53 PM,93.0,54.0,27,29.84,10.0,South,24.2,32.2,N/A,,Clear,170,2013-07-18 20:53:00
3:53 PM,93.9,54.0,26,29.81,10.0,SSE,24.2,33.4,N/A,,Clear,160,2013-07-18 21:53:00
4:53 PM,93.9,55.0,27,29.78,10.0,SSE,25.3,35.7,N/A,,Clear,160,2013-07-18 22:53:00
5:53 PM,91.9,55.0,29,29.77,10.0,South,24.2,35.7,N/A,,Clear,170,2013-07-18 23:53:00
6:53 PM,90.0,55.0,30,29.77,10.0,South,21.9,31.1,N/A,,Clear,170,2013-07-19 00:53:00
7:53 PM,87.1,55.0,33,29.78,10.0,SSE,17.3,26.5,N/A,,Clear,160,2013-07-19 01:53:00
8:53 PM,82.9,55.0,38,29.81,10.0,South,13.8,-,N/A,,Clear,170,2013-07-19 02:53:00
9:53 PM,81.0,55.0,41,29.83,10.0,SSE,13.8,-,N/A,,Clear,160,2013-07-19 03:53:00
10:53 PM,78.1,57.9,50,29.83,10.0,South,16.1,-,N/A,,Clear,170,2013-07-19 04:53:00
11:53 PM,77.0,59.0,54,29.82,10.0,South,18.4,-,N/A,,Clear,190,2013-07-19 05:53:00